Time;durP1;ratioP1;P1;durP2;ratioP2;P2;SDS_P1;SDS_P2;PMS_P1;PMS_P2;Temp;Humidity;BMP_temperature;BMP_pressure;BME280_temperature;BME280_humidity;BME280_pressure;Samples;Min_cycle;Max_cycle;Signal;HPM_P1;HPM_P2
2022/01/15 00:00:28;508197.00;1.69;875.94;0.00;0.00;0.62;;;;;8.50;1.00;;;;;;2267127;61;1381;-88
2022/01/15 00:02:56;119943000.00;399.81;69900208.00;0.00;0.00;0.62;;;;;8.80;1.00;;;;;;2266309;61;1058;-89
2022/01/15 00:05:24;364853.00;1.22;629.39;0.00;0.00;0.62;;;;;9.00;1.00;;;;;;2261446;61;1191;-87
2022/01/15 00:07:51;559021.00;1.86;963.51;0.00;0.00;0.62;;;;;8.30;1.00;;;;;;2261521;61;1140;-87
2022/01/15 00:10:25;579257.00;1.93;998.42;21121.00;0.07;37.21;;;;;7.20;1.00;;;;;;2261355;61;1922;-88
2022/01/15 00:12:52;511324.00;1.70;881.32;0.00;0.00;0.62;;;;;6.30;1.00;;;;;;2261842;61;1153;-87
2022/01/15 00:15:25;360401.00;1.20;621.74;0.00;0.00;0.62;;;;;5.80;1.00;;;;;;2261891;61;1208;-88
2022/01/15 00:17:57;538090.00;1.79;927.43;0.00;0.00;0.62;;;;;5.60;1.00;;;;;;2261348;61;1575;-88
2022/01/15 00:20:26;425528.00;1.42;733.70;0.00;0.00;0.62;;;;;5.30;1.00;;;;;;2261176;61;1369;-88
2022/01/15 00:22:55;417398.00;1.39;719.72;0.00;0.00;0.62;;;;;4.90;1.00;;;;;;2262799;61;1102;-88
2022/01/15 00:25:24;481444.00;1.60;829.88;0.00;0.00;0.62;;;;;4.60;1.00;;;;;;2270036;61;1106;-87
2022/01/15 00:27:51;539684.00;1.80;930.18;0.00;0.00;0.62;;;;;4.60;1.00;;;;;;2272262;61;1118;-87
2022/01/15 00:30:20;491465.00;1.64;847.13;0.00;0.00;0.62;;;;;4.50;1.00;;;;;;2272712;61;1739;-86
2022/01/15 00:32:48;445102.00;1.48;767.36;0.00;0.00;0.62;;;;;4.40;1.00;;;;;;2272722;61;1991;-85
2022/01/15 00:35:17;344849.00;1.15;595.01;0.00;0.00;0.62;;;;;4.40;1.00;;;;;;2272724;61;1060;-86
2022/01/15 00:37:47;458878.00;1.53;791.05;28973.00;0.10;50.81;;;;;4.40;1.00;;;;;;2269707;61;1059;-88
2022/01/15 00:40:16;616313.00;2.05;1062.40;0.00;0.00;0.62;;;;;4.20;1.00;;;;;;2269199;61;1292;-87
2022/01/15 00:42:44;514411.00;1.71;886.64;0.00;0.00;0.62;;;;;4.30;1.00;;;;;;2268963;61;1185;-88
2022/01/15 00:45:16;525120.00;1.75;905.08;0.00;0.00;0.62;;;;;4.80;1.00;;;;;;2269446;61;1161;-88
2022/01/15 00:47:43;436727.00;1.46;752.95;0.00;0.00;0.62;;;;;5.60;1.00;;;;;;2268374;61;1180;-87
2022/01/15 00:50:11;517171.00;1.72;891.39;0.00;0.00;0.62;;;;;5.60;1.00;;;;;;2268281;61;1305;-88
2022/01/15 00:52:38;404590.00;1.35;697.70;0.00;0.00;0.62;;;;;5.60;1.00;;;;;;2268585;61;1930;-88
2022/01/15 00:55:08;438062.00;1.46;755.25;0.00;0.00;0.62;;;;;5.60;1.00;;;;;;2268088;61;1148;-88
2022/01/15 00:57:35;260294.00;0.87;449.65;0.00;0.00;0.62;;;;;5.30;1.00;;;;;;2268273;61;1144;-88
2022/01/15 01:00:03;563500.00;1.88;971.24;53406.00;0.18;93.08;;;;;5.20;1.00;;;;;;2271655;61;1299;-87
2022/01/15 01:02:30;525706.00;1.75;906.09;0.00;0.00;0.62;;;;;4.90;1.00;;;;;;2271339;61;1093;-86
2022/01/15 01:04:57;741048.00;2.47;1278.50;0.00;0.00;0.62;;;;;4.50;1.00;;;;;;2268515;61;1238;-87
2022/01/15 01:07:24;495562.00;1.65;854.18;0.00;0.00;0.62;;;;;4.50;1.00;;;;;;2268126;61;1109;-86
2022/01/15 01:10:03;396707.00;1.32;684.14;0.00;0.00;0.62;;;;;4.90;1.00;;;;;;2267831;61;1261;-87
2022/01/15 01:12:55;534391.00;1.78;921.06;0.00;0.00;0.62;;;;;5.40;1.00;;;;;;2268009;61;1999;-87
2022/01/15 01:21:02;469171.00;1.56;808.76;0.00;0.00;0.62;;;;;5.10;1.00;;;;;;2267863;61;1439;-86
2022/01/15 01:23:29;526384.00;1.75;907.26;0.00;0.00;0.62;;;;;4.60;1.00;;;;;;2258945;61;1045;-86
2022/01/15 01:26:01;349356.00;1.16;602.75;0.00;0.00;0.62;;;;;4.40;1.00;;;;;;2258794;61;1589;-86
2022/01/15 01:28:33;442445.00;1.47;762.79;0.00;0.00;0.62;;;;;4.50;1.00;;;;;;2258684;61;1131;-87
2022/01/15 01:31:06;473487.00;1.58;816.19;0.00;0.00;0.62;;;;;4.30;1.00;;;;;;2258513;61;2026;-87
2022/01/15 01:33:37;350890.00;1.17;605.39;0.00;0.00;0.62;;;;;4.20;1.00;;;;;;2258698;61;1118;-86
2022/01/15 01:36:16;697209.00;2.32;1202.40;34074.00;0.11;59.63;;;;;3.80;1.00;;;;;;2258473;61;1186;-86
2022/01/15 01:38:51;561378.00;1.87;967.58;0.00;0.00;0.62;;;;;3.70;1.00;;;;;;2258845;61;1817;-86
2022/01/15 01:41:21;524848.00;1.75;904.62;0.00;0.00;0.62;;;;;3.80;1.00;;;;;;2248109;61;1448;-86
2022/01/15 01:43:56;715645.00;2.39;1234.38;0.00;0.00;0.62;;;;;4.10;1.00;;;;;;2250541;61;1154;-86
2022/01/15 01:46:39;611341.00;2.04;1053.81;0.00;0.00;0.62;;;;;4.00;1.00;;;;;;2250948;61;1150;-86
2022/01/15 01:49:13;497672.00;1.66;857.82;0.00;0.00;0.62;;;;;3.80;1.00;;;;;;2250953;61;1113;-86
2022/01/15 01:51:40;614132.00;2.05;1058.63;4095.00;0.01;7.72;;;;;3.60;1.00;;;;;;2246120;61;1947;-86
2022/01/15 01:54:10;585017.00;1.95;1008.36;0.00;0.00;0.62;;;;;3.40;1.00;;;;;;2246436;61;1181;-87
2022/01/15 01:56:37;509904.00;1.70;878.88;0.00;0.00;0.62;;;;;3.40;1.00;;;;;;2246429;61;1122;-87
2022/01/15 01:59:08;469801.00;1.57;809.85;0.00;0.00;0.62;;;;;3.30;1.00;;;;;;2242713;61;1067;-87
2022/01/15 02:01:36;576151.00;1.92;993.06;0.00;0.00;0.62;;;;;3.20;1.00;;;;;;2254473;61;1452;-86
2022/01/15 02:04:03;409997.00;1.37;706.99;0.00;0.00;0.62;;;;;3.10;1.00;;;;;;2251055;61;1557;-86
2022/01/15 02:06:30;491755.00;1.64;847.63;0.00;0.00;0.62;;;;;3.00;1.00;;;;;;2254619;61;1151;-86
2022/01/15 02:08:58;605744.00;2.02;1044.14;0.00;0.00;0.62;;;;;3.00;1.00;;;;;;2256561;61;1150;-86
2022/01/15 02:11:26;579400.00;1.93;998.66;0.00;0.00;0.62;;;;;3.00;1.00;;;;;;2268371;61;1939;-86
2022/01/15 02:13:53;519238.00;1.73;894.95;0.00;0.00;0.62;;;;;2.90;1.00;;;;;;2268308;61;1429;-86
2022/01/15 02:16:22;661627.00;2.21;1140.76;17766.00;0.06;31.40;;;;;2.80;1.00;;;;;;2261128;61;1157;-86
2022/01/15 02:18:53;483720.00;1.61;833.80;0.00;0.00;0.62;;;;;2.80;1.00;;;;;;2260834;61;1182;-86
2022/01/15 02:24:07;654227.00;2.18;1127.95;0.00;0.00;0.62;;;;;2.70;1.00;;;;;;2272410;61;775;-85
2022/01/15 02:26:37;566449.00;1.89;976.32;8162.00;0.03;14.76;;;;;2.70;1.00;;;;;;2265214;61;1189;-86
2022/01/15 02:29:05;682413.00;2.27;1176.75;0.00;0.00;0.62;;;;;2.80;1.00;;;;;;2261356;61;1157;-86
2022/01/15 02:31:33;426223.00;1.42;734.89;0.00;0.00;0.62;;;;;2.80;1.00;;;;;;2261933;61;2014;-85
2022/01/15 02:34:02;639678.00;2.13;1102.78;0.00;0.00;0.62;;;;;2.80;1.00;;;;;;2272022;61;1434;-86
2022/01/15 02:36:33;505691.00;1.69;871.62;0.00;0.00;0.62;;;;;2.70;1.00;;;;;;2267891;61;1069;-86
2022/01/15 02:39:00;710957.00;2.37;1226.24;0.00;0.00;0.62;;;;;2.70;1.00;;;;;;2267725;61;1156;-87
2022/01/15 02:41:30;556449.00;1.85;959.08;0.00;0.00;0.62;;;;;2.70;1.00;;;;;;2267809;61;1566;-86
2022/01/15 02:43:59;475876.00;1.59;820.30;0.00;0.00;0.62;;;;;2.60;1.00;;;;;;2267719;61;1134;-86
2022/01/15 02:48:00;461642.00;1.54;795.81;0.00;0.00;0.62;;;;;2.60;1.00;;;;;;2267853;61;1131;-86
2022/01/15 02:49:22;662451.00;2.21;1142.18;13267.00;0.04;23.61;;;;;2.40;1.00;;;;;;2263581;61;1577;-86
2022/01/15 02:51:50;413054.00;1.38;712.25;0.00;0.00;0.62;;;;;2.30;1.00;;;;;;2267113;61;1919;-87
2022/01/15 02:54:17;644272.00;2.15;1110.73;60383.00;0.20;105.14;;;;;2.40;1.00;;;;;;2267414;61;1175;-86
2022/01/15 02:56:46;798895.00;2.66;1379.20;82689.00;0.28;143.68;;;;;2.40;1.00;;;;;;2267479;61;1139;-86
2022/01/15 02:59:17;665992.00;2.22;1148.31;0.00;0.00;0.62;;;;;2.60;1.00;;;;;;2267364;61;1293;-86
2022/01/15 03:01:44;915835.00;3.05;1583.95;55514.00;0.19;96.72;;;;;2.50;1.00;;;;;;2267472;61;1591;-86
2022/01/15 03:04:11;702571.00;2.34;1211.70;0.00;0.00;0.62;;;;;2.30;1.00;;;;;;2267469;61;1271;-86
2022/01/15 03:06:38;536470.00;1.79;924.64;0.00;0.00;0.62;;;;;2.30;1.00;;;;;;2258832;61;1117;-86
2022/01/15 03:09:06;546619.00;1.82;942.13;0.00;0.00;0.62;;;;;2.70;1.00;;;;;;2255078;61;1278;-86
2022/01/15 03:11:33;602484.00;2.01;1038.51;0.00;0.00;0.62;;;;;2.80;1.00;;;;;;2258771;61;2017;-86
2022/01/15 03:14:01;646146.00;2.15;1113.97;15344.00;0.05;27.21;;;;;2.80;1.00;;;;;;2258680;61;1124;-86
2022/01/15 03:16:28;727889.00;2.43;1255.64;30516.00;0.10;53.48;;;;;2.70;1.00;;;;;;2255194;61;1103;-86
2022/01/15 03:18:55;690821.00;2.30;1191.32;0.00;0.00;0.62;;;;;2.60;1.00;;;;;;2258772;61;1140;-86
2022/01/15 03:21:22;795676.00;2.65;1373.58;20938.00;0.07;36.89;;;;;2.40;1.00;;;;;;2259328;61;1287;-86
2022/01/15 03:23:49;571612.00;1.91;985.23;28301.00;0.09;49.64;;;;;2.30;1.00;;;;;;2259534;61;1116;-86
2022/01/15 03:26:17;586282.00;1.95;1010.54;0.00;0.00;0.62;;;;;2.30;1.00;;;;;;2267482;61;1160;-86
2022/01/15 03:28:44;668772.00;2.23;1153.13;0.00;0.00;0.62;;;;;2.30;1.00;;;;;;2267676;61;1144;-87
2022/01/15 03:31:12;580576.00;1.94;1000.69;0.00;0.00;0.62;;;;;2.20;1.00;;;;;;2267896;61;1357;-86
2022/01/15 03:33:39;563408.00;1.88;971.08;0.00;0.00;0.62;;;;;2.20;1.00;;;;;;2259071;61;2033;-86
2022/01/15 03:36:06;611340.00;2.04;1053.80;0.00;0.00;0.62;;;;;2.20;1.00;;;;;;2259151;61;1192;-86
2022/01/15 03:38:33;588464.00;1.96;1014.31;0.00;0.00;0.62;;;;;2.20;1.00;;;;;;2259043;61;1128;-86
2022/01/15 03:41:00;614716.00;2.05;1059.64;0.00;0.00;0.62;;;;;2.30;1.00;;;;;;2256092;61;1445;-87
2022/01/15 03:43:28;685496.00;2.28;1182.10;0.00;0.00;0.62;;;;;2.20;1.00;;;;;;2259248;61;1742;-86
2022/01/15 03:45:55;573869.00;1.91;989.12;0.00;0.00;0.62;;;;;2.20;1.00;;;;;;2258911;61;1184;-86
2022/01/15 03:48:24;558645.00;1.86;962.86;0.00;0.00;0.62;;;;;2.50;1.00;;;;;;2258638;61;1121;-87
2022/01/15 03:50:51;119433920.00;398.11;69013128.00;0.00;0.00;0.62;;;;;2.60;1.00;;;;;;2259976;61;1289;-86
2022/01/15 03:53:20;611059.00;2.04;1053.32;0.00;0.00;0.62;;;;;2.60;1.00;;;;;;2267989;61;2006;-87
2022/01/15 03:55:47;804159.00;2.68;1388.38;43109.00;0.14;75.27;;;;;2.90;1.00;;;;;;2268062;61;1149;-87
2022/01/15 03:58:14;446851.00;1.49;770.37;0.00;0.00;0.62;;;;;3.30;1.00;;;;;;2268723;61;1118;-86
2022/01/15 04:00:42;604835.00;2.02;1042.57;0.00;0.00;0.62;;;;;3.10;1.00;;;;;;2268863;61;1276;-87
2022/01/15 04:03:09;698435.00;2.33;1204.52;0.00;0.00;0.62;;;;;3.00;1.00;;;;;;2269242;61;1152;-86
2022/01/15 04:05:36;648408.00;2.16;1117.88;0.00;0.00;0.62;;;;;2.90;1.00;;;;;;2268712;61;1671;-86
2022/01/15 04:08:03;558882.00;1.86;963.27;0.00;0.00;0.62;;;;;2.80;1.00;;;;;;2260626;61;1172;-86
2022/01/15 04:10:30;666723.00;2.22;1149.58;0.00;0.00;0.62;;;;;2.80;1.00;;;;;;2268003;61;1226;-86
2022/01/15 04:12:57;526315.00;1.75;907.14;0.00;0.00;0.62;;;;;2.50;1.00;;;;;;2270685;61;1934;-87
2022/01/15 04:15:25;558245.00;1.86;962.17;0.00;0.00;0.62;;;;;2.40;1.00;;;;;;2271942;61;1132;-86
2022/01/15 04:17:53;830410.00;2.77;1434.21;23517.00;0.08;41.36;;;;;2.50;1.00;;;;;;2271855;61;1109;-86
2022/01/15 04:20:23;821367.00;2.74;1418.41;0.00;0.00;0.62;;;;;2.40;1.00;;;;;;2271567;61;1257;-86
2022/01/15 04:22:51;636611.00;2.12;1097.48;0.00;0.00;0.62;;;;;2.70;1.00;;;;;;2268563;61;1108;-86
2022/01/15 04:25:18;814983.00;2.72;1407.27;0.00;0.00;0.62;;;;;2.80;1.00;;;;;;2270273;61;1091;-86
2022/01/15 04:27:46;686291.00;2.29;1183.47;8054.00;0.03;14.58;;;;;2.90;1.00;;;;;;2271936;61;1200;-87
2022/01/15 04:30:15;474102.00;1.58;817.25;0.00;0.00;0.62;;;;;3.00;1.00;;;;;;2272102;61;1380;-86
2022/01/15 04:32:42;620351.00;2.07;1069.37;0.00;0.00;0.62;;;;;2.80;1.00;;;;;;2272121;61;1919;-86
2022/01/15 04:35:12;593537.00;1.98;1023.06;0.00;0.00;0.62;;;;;2.70;1.00;;;;;;2272125;61;1120;-86
2022/01/15 04:37:43;657861.00;2.19;1134.24;0.00;0.00;0.62;;;;;2.50;1.00;;;;;;2261661;61;1185;-87
2022/01/15 04:40:12;864021.00;2.88;1493.01;15995.00;0.05;28.33;;;;;2.20;1.00;;;;;;2262697;61;1426;-85
2022/01/15 04:42:39;877493.00;2.92;1516.62;12791.00;0.04;22.78;;;;;2.10;1.00;;;;;;2272655;61;1107;-85
2022/01/15 04:45:08;528146.00;1.76;910.30;0.00;0.00;0.62;;;;;2.10;1.00;;;;;;2272686;61;941;-85
2022/01/15 04:47:35;598821.00;2.00;1032.18;0.00;0.00;0.62;;;;;2.00;1.00;;;;;;2268065;61;968;-85
2022/01/15 04:50:02;766269.00;2.55;1322.36;0.00;0.00;0.62;;;;;1.90;1.00;;;;;;2265341;61;1317;-86
2022/01/15 04:52:33;655988.00;2.19;1131.00;0.00;0.00;0.62;;;;;2.00;1.00;;;;;;2254043;61;1920;-86
2022/01/15 04:55:01;758410.00;2.53;1308.68;0.00;0.00;0.62;;;;;2.10;1.00;;;;;;2264662;61;1161;-86
2022/01/15 04:57:28;509854.00;1.70;878.79;0.00;0.00;0.62;;;;;2.20;1.00;;;;;;2264499;61;1160;-86
2022/01/15 04:59:55;509648.00;1.70;878.44;0.00;0.00;0.62;;;;;2.10;1.00;;;;;;2264135;61;1399;-87
2022/01/15 05:02:22;592854.00;1.98;1021.88;0.00;0.00;0.62;;;;;2.00;1.00;;;;;;2264368;61;1176;-86
2022/01/15 05:04:49;445912.00;1.49;768.75;0.00;0.00;0.62;;;;;2.00;1.00;;;;;;2266314;61;1103;-86
2022/01/15 05:07:16;615590.00;2.05;1061.15;0.00;0.00;0.62;;;;;2.10;1.00;;;;;;2272554;61;1092;-87
2022/01/15 05:09:45;514679.00;1.72;887.10;0.00;0.00;0.62;;;;;2.10;1.00;;;;;;2271275;61;1472;-85
2022/01/15 05:12:24;706069.00;2.35;1217.76;0.00;0.00;0.62;;;;;2.00;1.00;;;;;;2272591;61;1928;-84
2022/01/15 05:14:52;643236.00;2.14;1108.94;31870.00;0.11;55.82;;;;;2.30;1.00;;;;;;2265006;61;1101;-86
2022/01/15 05:17:19;521132.00;1.74;898.21;0.00;0.00;0.62;;;;;2.20;1.00;;;;;;2267971;61;1046;-86
2022/01/15 05:19:46;609339.00;2.03;1050.35;0.00;0.00;0.62;;;;;2.00;1.00;;;;;;2268105;61;1281;-86
2022/01/15 05:22:13;633713.00;2.11;1092.47;0.00;0.00;0.62;;;;;1.90;1.00;;;;;;2267811;61;1107;-87
2022/01/15 05:24:40;562488.00;1.87;969.49;0.00;0.00;0.62;;;;;1.90;1.00;;;;;;2267760;61;1104;-86
2022/01/15 05:27:08;454776.00;1.52;784.00;0.00;0.00;0.62;;;;;2.10;1.00;;;;;;2267829;61;1192;-87
2022/01/15 05:29:35;771557.00;2.57;1331.56;0.00;0.00;0.62;;;;;2.10;1.00;;;;;;2267654;61;1277;-87
2022/01/15 05:32:02;425879.00;1.42;734.30;0.00;0.00;0.62;;;;;2.10;1.00;;;;;;2267426;61;2061;-86
2022/01/15 05:34:29;618758.00;2.06;1066.62;0.00;0.00;0.62;;;;;2.20;1.00;;;;;;2267734;61;1165;-86
2022/01/15 05:36:56;579093.00;1.93;998.13;0.00;0.00;0.62;;;;;2.20;1.00;;;;;;2269193;61;1139;-87
2022/01/15 05:39:23;505099.00;1.68;870.60;0.00;0.00;0.62;;;;;2.30;1.00;;;;;;2271383;61;1273;-86
2022/01/15 05:41:50;775561.00;2.59;1338.53;25350.00;0.08;44.53;;;;;2.40;1.00;;;;;;2271593;61;1188;-86
2022/01/15 05:44:19;571619.00;1.91;985.24;0.00;0.00;0.62;;;;;2.50;1.00;;;;;;2269442;61;1098;-86
2022/01/15 05:46:46;556965.00;1.86;959.97;0.00;0.00;0.62;;;;;2.60;1.00;;;;;;2269088;61;888;-87
2022/01/15 05:49:13;661035.00;2.20;1139.73;0.00;0.00;0.62;;;;;2.70;1.00;;;;;;2268231;61;1346;-86
2022/01/15 05:51:40;517344.00;1.72;891.69;0.00;0.00;0.62;;;;;2.70;1.00;;;;;;2268141;61;1328;-87
2022/01/15 05:54:10;572439.00;1.91;986.65;0.00;0.00;0.62;;;;;2.60;1.00;;;;;;2267833;61;2038;-86
2022/01/15 05:56:38;120417952.00;401.39;70734664.00;0.00;0.00;0.62;;;;;2.70;1.00;;;;;;2267631;61;1167;-85
2022/01/15 05:59:06;593527.00;1.98;1023.04;0.00;0.00;0.62;;;;;2.50;1.00;;;;;;2268080;61;1037;-86
2022/01/15 06:01:35;678027.00;2.26;1169.16;0.00;0.00;0.62;;;;;2.70;1.00;;;;;;2268092;61;1732;-86
2022/01/15 06:04:02;738918.00;2.46;1274.79;0.00;0.00;0.62;;;;;2.80;1.00;;;;;;2267550;61;1113;-87
2022/01/15 06:06:29;492699.00;1.64;849.25;0.00;0.00;0.62;;;;;3.00;1.00;;;;;;2259234;61;1102;-86
2022/01/15 06:08:56;753371.00;2.51;1299.92;28387.00;0.09;49.79;;;;;2.60;1.00;;;;;;2255894;61;1154;-86
2022/01/15 06:11:24;561563.00;1.87;967.90;1113.00;0.00;2.55;;;;;2.70;1.00;;;;;;2255410;61;1383;-86
2022/01/15 06:13:51;478080.00;1.59;824.09;0.00;0.00;0.62;;;;;2.80;1.00;;;;;;2258591;61;1927;-86
2022/01/15 06:16:18;510734.00;1.70;880.31;0.00;0.00;0.62;;;;;2.70;1.00;;;;;;2259085;61;1121;-87
2022/01/15 06:18:47;456445.00;1.52;786.87;0.00;0.00;0.62;;;;;3.00;1.00;;;;;;2259320;61;1113;-86
2022/01/15 06:21:14;712148.00;2.37;1228.31;0.00;0.00;0.62;;;;;3.20;1.00;;;;;;2250637;61;1423;-87
2022/01/15 06:23:41;654525.00;2.18;1128.47;0.00;0.00;0.62;;;;;3.10;1.00;;;;;;2250829;61;1073;-88
2022/01/15 06:26:09;513997.00;1.71;885.93;0.00;0.00;0.62;;;;;3.20;1.00;;;;;;2258532;61;1164;-87
2022/01/15 06:28:36;600927.00;2.00;1035.82;0.00;0.00;0.62;;;;;3.10;1.00;;;;;;2258372;61;1154;-88
2022/01/15 06:31:03;573636.00;1.91;988.72;0.00;0.00;0.62;;;;;3.30;1.00;;;;;;2258594;61;1451;-88
2022/01/15 06:33:29;536343.00;1.79;924.42;0.00;0.00;0.62;;;;;3.10;1.00;;;;;;2257769;61;2005;-87
2022/01/15 06:35:58;619060.00;2.06;1067.14;0.00;0.00;0.62;;;;;3.20;1.00;;;;;;2258215;61;1109;-86
2022/01/15 06:38:25;578042.00;1.93;996.32;0.00;0.00;0.62;;;;;3.00;1.00;;;;;;2260023;61;1810;-86
2022/01/15 06:40:52;614593.00;2.05;1059.42;0.00;0.00;0.62;;;;;3.20;1.00;;;;;;2267709;61;1377;-86
2022/01/15 06:43:19;598857.00;2.00;1032.25;0.00;0.00;0.62;;;;;3.30;1.00;;;;;;2267631;61;1135;-87
2022/01/15 06:45:46;521019.00;1.74;898.02;0.00;0.00;0.62;;;;;3.80;1.00;;;;;;2268177;61;1100;-87
2022/01/15 06:48:13;435452.00;1.45;750.76;0.00;0.00;0.62;;;;;5.00;1.00;;;;;;2268129;61;1109;-88
2022/01/15 06:50:42;510221.00;1.70;879.42;0.00;0.00;0.62;;;;;5.60;1.00;;;;;;2268119;61;1394;-87
2022/01/15 06:53:11;549093.00;1.83;946.40;0.00;0.00;0.62;;;;;6.30;1.00;;;;;;2268151;61;2008;-88
2022/01/15 06:55:37;592583.00;1.98;1021.42;12887.00;0.04;22.95;;;;;7.00;1.00;;;;;;2268360;61;1308;-88
2022/01/15 06:58:04;495263.00;1.65;853.67;0.00;0.00;0.62;;;;;7.30;1.00;;;;;;2267914;61;1097;-88
2022/01/15 07:00:31;473320.00;1.58;815.90;0.00;0.00;0.62;;;;;7.50;1.00;;;;;;2267745;61;1383;-88
2022/01/15 07:03:00;588862.00;1.96;1014.99;0.00;0.00;0.62;;;;;7.20;1.00;;;;;;2267668;61;1136;-88
2022/01/15 07:05:27;440190.00;1.47;758.91;0.00;0.00;0.62;;;;;6.90;1.00;;;;;;2267629;61;1257;-88
2022/01/15 07:07:54;551171.00;1.84;949.98;0.00;0.00;0.62;;;;;7.00;1.00;;;;;;2267775;61;1619;-88
2022/01/15 07:10:23;430058.00;1.43;741.49;0.00;0.00;0.62;;;;;7.20;1.00;;;;;;2268677;61;1338;-88
2022/01/15 07:12:50;441025.00;1.47;760.35;0.00;0.00;0.62;;;;;7.60;1.00;;;;;;2268773;61;2022;-88
2022/01/15 07:15:17;544257.00;1.81;938.06;0.00;0.00;0.62;;;;;7.70;1.00;;;;;;2269402;61;1152;-87
2022/01/15 07:17:44;454133.00;1.51;782.89;0.00;0.00;0.62;;;;;7.40;1.00;;;;;;2268736;61;1113;-87
2022/01/15 07:20:13;553642.00;1.85;954.24;0.00;0.00;0.62;;;;;6.80;1.00;;;;;;2268463;61;1225;-89
2022/01/15 07:22:41;527618.00;1.76;909.39;0.00;0.00;0.62;;;;;6.30;1.00;;;;;;2268811;61;1108;-88
2022/01/15 07:25:10;318230.00;1.06;549.26;0.00;0.00;0.62;;;;;7.10;1.00;;;;;;2268198;61;1176;-87
2022/01/15 07:27:38;416525.00;1.39;718.22;0.00;0.00;0.62;;;;;7.30;1.00;;;;;;2268075;61;1144;-88
2022/01/15 07:30:07;552870.00;1.84;952.91;0.00;0.00;0.62;;;;;7.60;1.00;;;;;;2268475;61;1349;-87
2022/01/15 07:32:35;394324.00;1.31;680.05;0.00;0.00;0.62;;;;;7.60;1.00;;;;;;2268528;61;1431;-88
2022/01/15 07:35:02;456034.00;1.52;786.16;0.00;0.00;0.62;;;;;7.40;1.00;;;;;;2269449;61;2034;-88
2022/01/15 07:37:30;404915.00;1.35;698.25;0.00;0.00;0.62;;;;;7.10;1.00;;;;;;2268990;61;1164;-86
2022/01/15 07:39:56;363524.00;1.21;627.11;0.00;0.00;0.62;;;;;7.50;1.00;;;;;;2268911;61;1317;-86
2022/01/15 07:42:23;500646.00;1.67;862.94;0.00;0.00;0.62;;;;;7.50;1.00;;;;;;2269507;61;1100;-86
2022/01/15 07:44:52;530467.00;1.77;914.30;0.00;0.00;0.62;;;;;7.60;1.00;;;;;;2270186;61;1078;-87
2022/01/15 07:47:19;463996.00;1.55;799.86;0.00;0.00;0.62;;;;;7.40;1.00;;;;;;2270471;61;1290;-86
2022/01/15 07:49:46;426293.00;1.42;735.01;0.00;0.00;0.62;;;;;7.50;1.00;;;;;;2271461;61;1298;-87
2022/01/15 07:52:13;638115.00;2.13;1100.08;0.00;0.00;0.62;;;;;7.40;1.00;;;;;;2270944;61;1143;-87
2022/01/15 07:54:40;611669.00;2.04;1054.37;0.00;0.00;0.62;;;;;7.40;1.00;;;;;;2272819;61;2017;-87
2022/01/15 07:57:07;512696.00;1.71;883.69;0.00;0.00;0.62;;;;;7.40;1.00;;;;;;2271144;61;1099;-88
2022/01/15 07:59:34;314591.00;1.05;543.00;0.00;0.00;0.62;;;;;7.30;1.00;;;;;;2268908;61;1335;-87
2022/01/15 08:02:03;476928.00;1.59;822.11;0.00;0.00;0.62;;;;;7.30;1.00;;;;;;2269047;61;1164;-88
2022/01/15 08:04:30;530669.00;1.77;914.64;0.00;0.00;0.62;;;;;7.10;1.00;;;;;;2268568;61;1178;-88
2022/01/15 08:06:56;404506.00;1.35;697.55;0.00;0.00;0.62;;;;;7.10;1.00;;;;;;2267728;61;1174;-87
2022/01/15 08:09:23;499959.00;1.67;861.75;0.00;0.00;0.62;;;;;6.70;1.00;;;;;;2268436;61;1280;-87
2022/01/15 08:11:50;499940.00;1.67;861.72;0.00;0.00;0.62;;;;;6.60;1.00;;;;;;2268670;61;1072;-87
2022/01/15 08:14:17;484083.00;1.61;834.42;0.00;0.00;0.62;;;;;6.60;1.00;;;;;;2267898;61;2008;-88
2022/01/15 08:16:44;448120.00;1.49;772.55;0.00;0.00;0.62;;;;;6.60;1.00;;;;;;2268292;61;1144;-87
2022/01/15 08:19:12;518523.00;1.73;893.72;0.00;0.00;0.62;;;;;6.50;1.00;;;;;;2267739;61;1088;-86
2022/01/15 08:21:41;403088.00;1.34;695.11;0.00;0.00;0.62;;;;;6.30;1.00;;;;;;2268762;61;1180;-86
2022/01/15 08:24:09;526037.00;1.75;906.66;0.00;0.00;0.62;;;;;6.60;1.00;;;;;;2267848;61;1292;-88
2022/01/15 08:26:36;463312.00;1.54;798.68;0.00;0.00;0.62;;;;;6.40;1.00;;;;;;2268381;61;1105;-86
2022/01/15 08:29:03;449372.00;1.50;774.70;0.00;0.00;0.62;;;;;6.80;1.00;;;;;;2268326;61;1131;-87
2022/01/15 08:31:30;622232.00;2.07;1072.62;0.00;0.00;0.62;;;;;6.50;1.00;;;;;;2267991;61;1783;-88
2022/01/15 08:33:58;499372.00;1.66;860.74;0.00;0.00;0.62;;;;;6.30;1.00;;;;;;2268746;61;2010;-88
2022/01/15 08:36:26;538986.00;1.80;928.98;0.00;0.00;0.62;;;;;6.40;1.00;;;;;;2268850;61;1097;-88
2022/01/15 08:38:53;483014.00;1.61;832.58;0.00;0.00;0.62;;;;;6.50;1.00;;;;;;2268979;61;1107;-88
2022/01/15 08:41:20;634727.00;2.12;1094.22;0.00;0.00;0.62;;;;;6.30;1.00;;;;;;2269100;61;1313;-88
2022/01/15 08:43:47;551850.00;1.84;951.15;0.00;0.00;0.62;;;;;6.00;1.00;;;;;;2268663;61;1705;-88
2022/01/15 08:46:14;612032.00;2.04;1055.00;0.00;0.00;0.62;;;;;6.00;1.00;;;;;;2269012;61;1039;-88
2022/01/15 08:48:40;488710.00;1.63;842.39;0.00;0.00;0.62;;;;;6.30;1.00;;;;;;2268416;61;1108;-87
2022/01/15 08:51:08;514919.00;1.72;887.51;0.00;0.00;0.62;;;;;5.90;1.00;;;;;;2268755;61;1343;-87
2022/01/15 08:53:36;543811.00;1.81;937.29;0.00;0.00;0.62;;;;;5.50;1.00;;;;;;2269550;61;2002;-88
2022/01/15 08:56:04;695278.00;2.32;1199.05;0.00;0.00;0.62;;;;;5.40;1.00;;;;;;2269175;61;1151;-87
2022/01/15 08:58:31;520405.00;1.73;896.96;0.00;0.00;0.62;;;;;4.80;1.00;;;;;;2269314;61;1072;-87
2022/01/15 09:00:58;469499.00;1.56;809.33;0.00;0.00;0.62;;;;;4.40;1.00;;;;;;2269612;61;1415;-87
2022/01/15 09:03:26;680375.00;2.27;1173.22;0.00;0.00;0.62;;;;;4.00;1.00;;;;;;2269392;61;1066;-87
2022/01/15 09:05:53;467597.00;1.56;806.05;0.00;0.00;0.62;;;;;3.60;1.00;;;;;;2269501;61;1129;-88
2022/01/15 09:08:24;589709.00;1.97;1016.45;0.00;0.00;0.62;;;;;3.70;1.00;;;;;;2271551;61;1120;-88
2022/01/15 09:10:53;479437.00;1.60;826.43;0.00;0.00;0.62;;;;;3.60;1.00;;;;;;2272407;61;1323;-85
2022/01/15 09:13:20;432123.00;1.44;745.04;0.00;0.00;0.62;;;;;3.60;1.00;;;;;;2270828;61;2001;-87
2022/01/15 09:15:46;510175.00;1.70;879.34;0.00;0.00;0.62;;;;;3.70;1.00;;;;;;2269009;61;1132;-88
2022/01/15 09:18:15;756058.00;2.52;1304.59;0.00;0.00;0.62;;;;;3.80;1.00;;;;;;2268686;61;1064;-87
2022/01/15 09:20:42;496908.00;1.66;856.50;0.00;0.00;0.62;;;;;3.90;1.00;;;;;;2268948;61;1448;-87
2022/01/15 09:23:10;521763.00;1.74;899.30;0.00;0.00;0.62;;;;;4.10;1.00;;;;;;2271008;61;1180;-87
2022/01/15 09:25:37;423740.00;1.41;730.62;0.00;0.00;0.62;;;;;5.10;1.00;;;;;;2269599;61;1641;-88
2022/01/15 09:30:50;404092.00;1.35;696.84;0.00;0.00;0.62;;;;;6.50;1.00;;;;;;2270506;61;1452;-88
2022/01/15 09:33:18;557973.00;1.86;961.71;0.00;0.00;0.62;;;;;7.10;1.00;;;;;;2270505;61;1950;-88
2022/01/15 09:39:18;150243568.00;500.81;137478224.00;0.00;0.00;0.62;;;;;6.50;1.00;;;;;;2267580;61;1021;-88
2022/01/15 09:42:18;318435.00;1.06;549.61;0.00;0.00;0.62;;;;;6.40;1.00;;;;;;2267402;61;1688;-87
2022/01/15 13:24:45;278955.00;0.93;481.74;0.00;0.00;0.62;;;;;7.20;1.00;;;;;;2270996;61;949;-89
2022/01/15 14:00:46;350847.00;1.17;605.32;3996.00;0.01;7.55;;;;;7.30;1.00;;;;;;2270808;61;924;-91
2022/01/15 20:19:19;1155530.00;3.85;2010.02;123329.00;0.41;213.82;;;;;8.10;1.00;;;;;;2212019;56;2586;-90
2022/01/15 20:21:46;948324.00;3.16;1641.16;10327.00;0.03;18.52;;;;;8.00;1.00;;;;;;2258283;61;1396;-87
2022/01/15 20:24:13;664705.00;2.22;1146.09;0.00;0.00;0.62;;;;;7.60;1.00;;;;;;2256595;61;1047;-86
2022/01/15 20:26:42;621093.00;2.07;1070.65;0.00;0.00;0.62;;;;;7.20;1.00;;;;;;2256602;61;961;-87
2022/01/15 20:29:09;542200.00;1.81;934.51;0.00;0.00;0.62;;;;;7.20;1.00;;;;;;2256580;61;1064;-87
2022/01/15 20:31:36;468866.00;1.56;808.24;0.00;0.00;0.62;;;;;7.10;1.00;;;;;;2256636;61;1097;-86
2022/01/15 20:34:03;782095.00;2.61;1349.91;0.00;0.00;0.62;;;;;7.20;1.00;;;;;;2256436;61;2008;-87
2022/01/15 20:36:32;583969.00;1.95;1006.55;224.00;0.00;1.01;;;;;7.90;1.00;;;;;;2256637;61;965;-87
2022/01/15 20:38:59;804912.00;2.68;1389.69;6466.00;0.02;11.83;;;;;8.00;1.00;;;;;;2256631;61;1108;-86
2022/01/15 20:41:27;624526.00;2.08;1076.59;0.00;0.00;0.62;;;;;7.70;1.00;;;;;;2256570;61;1119;-89
2022/01/15 20:43:54;582659.00;1.94;1004.29;0.00;0.00;0.62;;;;;7.30;1.00;;;;;;2256740;61;1362;-87
2022/01/15 20:46:21;551347.00;1.84;950.28;0.00;0.00;0.62;;;;;7.00;1.00;;;;;;2256763;61;1250;-89
2022/01/15 20:48:48;427732.00;1.43;737.49;0.00;0.00;0.62;;;;;7.20;1.00;;;;;;2254679;61;925;-88